sensor_id;sensor_type;location;lat;lon;timestamp;P1;durP1;ratioP1;P2;durP2;ratioP2
4971;SDS011;2501;51.214;6.768;2023-04-03T00:01:17;5.90;;;4.50;;
4971;SDS011;2501;51.214;6.768;2023-04-03T00:03:49;5.00;;;4.50;;
4971;SDS011;2501;51.214;6.768;2023-04-03T00:06:17;4.50;;;4.20;;
4971;SDS011;2501;51.214;6.768;2023-04-03T00:08:46;4.90;;;4.40;;
4971;SDS011;2501;51.214;6.768;2023-04-03T00:11:14;7.97;;;5.10;;
4971;SDS011;2501;51.214;6.768;2023-04-03T00:13:43;5.95;;;4.00;;
4971;SDS011;2501;51.214;6.768;2023-04-03T00:16:12;5.18;;;4.50;;
4971;SDS011;2501;51.214;6.768;2023-04-03T00:18:40;6.63;;;4.38;;
4971;SDS011;2501;51.214;6.768;2023-04-03T00:21:12;7.38;;;4.00;;
4971;SDS011;2501;51.214;6.768;2023-04-03T00:23:41;4.70;;;4.30;;
4971;SDS011;2501;51.214;6.768;2023-04-03T00:26:09;6.57;;;4.40;;
4971;SDS011;2501;51.214;6.768;2023-04-03T00:28:38;6.43;;;4.63;;
4971;SDS011;2501;51.214;6.768;2023-04-03T00:31:06;4.43;;;4.03;;
4971;SDS011;2501;51.214;6.768;2023-04-03T00:33:34;6.77;;;3.87;;
4971;SDS011;2501;51.214;6.768;2023-04-03T00:36:07;6.75;;;4.55;;
4971;SDS011;2501;51.214;6.768;2023-04-03T00:38:38;4.60;;;4.10;;
4971;SDS011;2501;51.214;6.768;2023-04-03T00:41:07;6.10;;;4.63;;
4971;SDS011;2501;51.214;6.768;2023-04-03T00:43:35;5.18;;;4.68;;
4971;SDS011;2501;51.214;6.768;2023-04-03T00:46:04;8.25;;;4.38;;
4971;SDS011;2501;51.214;6.768;2023-04-03T00:48:34;9.30;;;4.47;;
4971;SDS011;2501;51.214;6.768;2023-04-03T00:51:06;5.28;;;4.10;;
4971;SDS011;2501;51.214;6.768;2023-04-03T00:53:41;5.80;;;4.10;;
4971;SDS011;2501;51.214;6.768;2023-04-03T00:56:14;4.75;;;3.83;;
4971;SDS011;2501;51.214;6.768;2023-04-03T00:58:47;4.35;;;3.92;;
4971;SDS011;2501;51.214;6.768;2023-04-03T01:01:20;10.52;;;3.90;;
4971;SDS011;2501;51.214;6.768;2023-04-03T01:03:51;5.35;;;3.92;;
4971;SDS011;2501;51.214;6.768;2023-04-03T01:06:21;5.70;;;4.00;;
4971;SDS011;2501;51.214;6.768;2023-04-03T01:08:56;7.07;;;3.83;;
4971;SDS011;2501;51.214;6.768;2023-04-03T01:11:24;8.63;;;4.38;;
4971;SDS011;2501;51.214;6.768;2023-04-03T01:13:53;4.68;;;3.60;;
4971;SDS011;2501;51.214;6.768;2023-04-03T01:16:22;4.47;;;4.07;;
4971;SDS011;2501;51.214;6.768;2023-04-03T01:18:50;6.00;;;3.80;;
4971;SDS011;2501;51.214;6.768;2023-04-03T01:21:30;5.80;;;4.00;;
4971;SDS011;2501;51.214;6.768;2023-04-03T01:24:25;3.90;;;3.60;;
4971;SDS011;2501;51.214;6.768;2023-04-03T01:26:59;6.45;;;4.00;;
4971;SDS011;2501;51.214;6.768;2023-04-03T01:29:30;4.90;;;3.50;;
4971;SDS011;2501;51.214;6.768;2023-04-03T01:32:02;4.00;;;3.45;;
4971;SDS011;2501;51.214;6.768;2023-04-03T01:34:31;3.85;;;3.45;;
4971;SDS011;2501;51.214;6.768;2023-04-03T01:36:59;4.65;;;3.28;;
4971;SDS011;2501;51.214;6.768;2023-04-03T01:39:28;4.50;;;3.40;;
4971;SDS011;2501;51.214;6.768;2023-04-03T01:41:56;4.22;;;3.30;;
4971;SDS011;2501;51.214;6.768;2023-04-03T01:44:25;4.97;;;3.20;;
4971;SDS011;2501;51.214;6.768;2023-04-03T01:46:53;3.90;;;3.30;;
4971;SDS011;2501;51.214;6.768;2023-04-03T01:49:24;3.83;;;3.42;;
4971;SDS011;2501;51.214;6.768;2023-04-03T01:51:53;4.83;;;3.63;;
4971;SDS011;2501;51.214;6.768;2023-04-03T01:54:21;3.78;;;2.75;;
4971;SDS011;2501;51.214;6.768;2023-04-03T01:56:49;5.22;;;3.15;;
4971;SDS011;2501;51.214;6.768;2023-04-03T01:59:18;5.40;;;3.10;;
4971;SDS011;2501;51.214;6.768;2023-04-03T02:01:46;6.90;;;3.40;;
4971;SDS011;2501;51.214;6.768;2023-04-03T02:04:15;4.82;;;3.20;;
4971;SDS011;2501;51.214;6.768;2023-04-03T02:06:46;4.15;;;3.33;;
4971;SDS011;2501;51.214;6.768;2023-04-03T02:09:14;3.65;;;3.17;;
4971;SDS011;2501;51.214;6.768;2023-04-03T02:11:43;6.97;;;3.40;;
4971;SDS011;2501;51.214;6.768;2023-04-03T02:14:11;5.13;;;3.35;;
4971;SDS011;2501;51.214;6.768;2023-04-03T02:16:39;4.95;;;3.45;;
4971;SDS011;2501;51.214;6.768;2023-04-03T02:19:08;5.40;;;3.80;;
4971;SDS011;2501;51.214;6.768;2023-04-03T02:21:36;8.95;;;4.32;;
4971;SDS011;2501;51.214;6.768;2023-04-03T02:24:07;6.63;;;3.90;;
4971;SDS011;2501;51.214;6.768;2023-04-03T02:26:36;5.82;;;4.20;;
4971;SDS011;2501;51.214;6.768;2023-04-03T02:29:04;8.33;;;4.00;;
4971;SDS011;2501;51.214;6.768;2023-04-03T02:31:33;6.90;;;3.50;;
4971;SDS011;2501;51.214;6.768;2023-04-03T02:34:01;8.15;;;3.67;;
4971;SDS011;2501;51.214;6.768;2023-04-03T02:36:29;5.20;;;4.00;;
4971;SDS011;2501;51.214;6.768;2023-04-03T02:38:58;5.78;;;3.70;;
4971;SDS011;2501;51.214;6.768;2023-04-03T02:41:29;5.38;;;3.70;;
4971;SDS011;2501;51.214;6.768;2023-04-03T02:44:00;5.82;;;4.18;;
4971;SDS011;2501;51.214;6.768;2023-04-03T02:46:28;7.15;;;3.97;;
4971;SDS011;2501;51.214;6.768;2023-04-03T02:48:57;5.97;;;4.10;;
4971;SDS011;2501;51.214;6.768;2023-04-03T02:51:25;7.68;;;4.00;;
4971;SDS011;2501;51.214;6.768;2023-04-03T02:53:54;7.53;;;3.90;;
4971;SDS011;2501;51.214;6.768;2023-04-03T02:56:22;5.87;;;4.33;;
4971;SDS011;2501;51.214;6.768;2023-04-03T02:58:54;7.65;;;4.30;;
4971;SDS011;2501;51.214;6.768;2023-04-03T03:01:22;5.78;;;4.00;;
4971;SDS011;2501;51.214;6.768;2023-04-03T03:03:53;4.07;;;3.70;;
4971;SDS011;2501;51.214;6.768;2023-04-03T03:06:21;8.05;;;4.50;;
4971;SDS011;2501;51.214;6.768;2023-04-03T03:08:50;5.35;;;4.20;;
4971;SDS011;2501;51.214;6.768;2023-04-03T03:11:18;7.72;;;4.10;;
4971;SDS011;2501;51.214;6.768;2023-04-03T03:13:47;4.10;;;3.70;;
4971;SDS011;2501;51.214;6.768;2023-04-03T03:16:18;5.90;;;3.97;;
4971;SDS011;2501;51.214;6.768;2023-04-03T03:18:46;4.25;;;3.90;;
4971;SDS011;2501;51.214;6.768;2023-04-03T03:21:15;4.38;;;3.97;;
4971;SDS011;2501;51.214;6.768;2023-04-03T03:23:43;9.23;;;3.67;;
4971;SDS011;2501;51.214;6.768;2023-04-03T03:26:12;8.68;;;3.92;;
4971;SDS011;2501;51.214;6.768;2023-04-03T03:28:40;4.45;;;3.70;;
4971;SDS011;2501;51.214;6.768;2023-04-03T03:31:09;5.20;;;3.95;;
4971;SDS011;2501;51.214;6.768;2023-04-03T03:33:40;7.60;;;4.15;;
4971;SDS011;2501;51.214;6.768;2023-04-03T03:36:09;5.00;;;3.83;;
4971;SDS011;2501;51.214;6.768;2023-04-03T03:38:38;6.80;;;3.30;;
4971;SDS011;2501;51.214;6.768;2023-04-03T03:41:06;4.85;;;3.20;;
4971;SDS011;2501;51.214;6.768;2023-04-03T03:43:35;6.57;;;4.03;;
4971;SDS011;2501;51.214;6.768;2023-04-03T03:46:03;6.45;;;4.53;;
4971;SDS011;2501;51.214;6.768;2023-04-03T03:48:32;9.88;;;4.32;;
4971;SDS011;2501;51.214;6.768;2023-04-03T03:51:03;7.22;;;3.83;;
4971;SDS011;2501;51.214;6.768;2023-04-03T03:53:31;6.80;;;3.50;;
4971;SDS011;2501;51.214;6.768;2023-04-03T03:56:00;5.03;;;3.65;;
4971;SDS011;2501;51.214;6.768;2023-04-03T03:58:30;7.17;;;3.80;;
4971;SDS011;2501;51.214;6.768;2023-04-03T04:01:00;5.45;;;3.50;;
4971;SDS011;2501;51.214;6.768;2023-04-03T04:03:29;6.95;;;3.50;;
4971;SDS011;2501;51.214;6.768;2023-04-03T04:05:57;4.88;;;3.00;;
4971;SDS011;2501;51.214;6.768;2023-04-03T04:08:28;6.60;;;3.53;;
4971;SDS011;2501;51.214;6.768;2023-04-03T04:10:57;8.00;;;3.80;;
4971;SDS011;2501;51.214;6.768;2023-04-03T04:13:25;3.80;;;3.50;;
4971;SDS011;2501;51.214;6.768;2023-04-03T04:15:53;6.32;;;3.60;;
4971;SDS011;2501;51.214;6.768;2023-04-03T04:18:22;9.40;;;3.88;;
4971;SDS011;2501;51.214;6.768;2023-04-03T04:20:50;6.10;;;3.20;;
4971;SDS011;2501;51.214;6.768;2023-04-03T04:23:19;9.73;;;3.72;;
4971;SDS011;2501;51.214;6.768;2023-04-03T04:25:53;5.40;;;3.60;;
4971;SDS011;2501;51.214;6.768;2023-04-03T04:28:22;8.10;;;3.38;;
4971;SDS011;2501;51.214;6.768;2023-04-03T04:30:50;4.13;;;3.30;;
4971;SDS011;2501;51.214;6.768;2023-04-03T04:33:19;6.38;;;3.80;;
4971;SDS011;2501;51.214;6.768;2023-04-03T04:35:47;4.45;;;3.60;;
4971;SDS011;2501;51.214;6.768;2023-04-03T04:38:16;5.30;;;3.70;;
4971;SDS011;2501;51.214;6.768;2023-04-03T04:40:46;7.30;;;3.95;;
4971;SDS011;2501;51.214;6.768;2023-04-03T04:43:18;5.37;;;3.30;;
4971;SDS011;2501;51.214;6.768;2023-04-03T04:45:47;5.53;;;3.15;;
4971;SDS011;2501;51.214;6.768;2023-04-03T04:48:15;7.22;;;3.33;;
4971;SDS011;2501;51.214;6.768;2023-04-03T04:50:43;4.05;;;3.30;;
4971;SDS011;2501;51.214;6.768;2023-04-03T04:53:12;4.63;;;3.40;;
4971;SDS011;2501;51.214;6.768;2023-04-03T04:55:40;8.10;;;3.42;;
4971;SDS011;2501;51.214;6.768;2023-04-03T04:58:08;7.07;;;3.80;;
4971;SDS011;2501;51.214;6.768;2023-04-03T05:00:40;6.70;;;3.22;;
4971;SDS011;2501;51.214;6.768;2023-04-03T05:03:08;7.22;;;3.38;;
4971;SDS011;2501;51.214;6.768;2023-04-03T05:05:37;5.90;;;2.80;;
4971;SDS011;2501;51.214;6.768;2023-04-03T05:08:05;5.93;;;3.78;;
4971;SDS011;2501;51.214;6.768;2023-04-03T05:10:34;6.30;;;3.17;;
4971;SDS011;2501;51.214;6.768;2023-04-03T05:13:02;3.70;;;3.13;;
4971;SDS011;2501;51.214;6.768;2023-04-03T05:15:31;2.70;;;2.50;;
4971;SDS011;2501;51.214;6.768;2023-04-03T05:18:02;8.43;;;3.10;;
4971;SDS011;2501;51.214;6.768;2023-04-03T05:20:30;9.57;;;3.40;;
4971;SDS011;2501;51.214;6.768;2023-04-03T05:23:00;7.47;;;2.80;;
4971;SDS011;2501;51.214;6.768;2023-04-03T05:25:28;5.85;;;3.50;;
4971;SDS011;2501;51.214;6.768;2023-04-03T05:27:57;3.50;;;2.63;;
4971;SDS011;2501;51.214;6.768;2023-04-03T05:30:25;9.20;;;3.07;;
4971;SDS011;2501;51.214;6.768;2023-04-03T05:32:54;8.63;;;3.10;;
4971;SDS011;2501;51.214;6.768;2023-04-03T05:35:25;6.70;;;3.35;;
4971;SDS011;2501;51.214;6.768;2023-04-03T05:37:53;7.60;;;3.13;;
4971;SDS011;2501;51.214;6.768;2023-04-03T05:40:22;9.13;;;3.08;;
4971;SDS011;2501;51.214;6.768;2023-04-03T05:42:50;4.90;;;3.00;;
4971;SDS011;2501;51.214;6.768;2023-04-03T05:45:19;2.50;;;2.30;;
4971;SDS011;2501;51.214;6.768;2023-04-03T05:47:47;7.38;;;3.60;;
4971;SDS011;2501;51.214;6.768;2023-04-03T05:50:16;6.45;;;2.80;;
4971;SDS011;2501;51.214;6.768;2023-04-03T05:52:48;4.88;;;2.92;;
4971;SDS011;2501;51.214;6.768;2023-04-03T05:55:18;7.70;;;3.10;;
4971;SDS011;2501;51.214;6.768;2023-04-03T05:57:47;6.80;;;3.47;;
4971;SDS011;2501;51.214;6.768;2023-04-03T06:00:15;4.47;;;2.80;;
4971;SDS011;2501;51.214;6.768;2023-04-03T06:02:44;5.23;;;2.90;;
4971;SDS011;2501;51.214;6.768;2023-04-03T06:05:13;5.38;;;2.15;;
4971;SDS011;2501;51.214;6.768;2023-04-03T06:07:41;4.75;;;2.60;;
4971;SDS011;2501;51.214;6.768;2023-04-03T06:10:13;10.73;;;3.22;;
4971;SDS011;2501;51.214;6.768;2023-04-03T06:12:42;8.50;;;3.10;;
4971;SDS011;2501;51.214;6.768;2023-04-03T06:15:10;5.72;;;2.67;;
4971;SDS011;2501;51.214;6.768;2023-04-03T06:17:40;7.43;;;3.30;;
4971;SDS011;2501;51.214;6.768;2023-04-03T06:20:09;3.70;;;2.80;;
4971;SDS011;2501;51.214;6.768;2023-04-03T06:22:39;4.32;;;2.75;;
4971;SDS011;2501;51.214;6.768;2023-04-03T06:25:08;10.93;;;2.90;;
4971;SDS011;2501;51.214;6.768;2023-04-03T06:27:39;10.13;;;3.00;;
4971;SDS011;2501;51.214;6.768;2023-04-03T06:30:08;8.90;;;3.08;;
4971;SDS011;2501;51.214;6.768;2023-04-03T06:32:37;10.95;;;2.70;;
4971;SDS011;2501;51.214;6.768;2023-04-03T06:35:06;5.93;;;2.67;;
4971;SDS011;2501;51.214;6.768;2023-04-03T06:37:35;4.75;;;2.40;;
4971;SDS011;2501;51.214;6.768;2023-04-03T06:40:03;4.70;;;2.75;;
4971;SDS011;2501;51.214;6.768;2023-04-03T06:42:34;6.05;;;2.38;;
4971;SDS011;2501;51.214;6.768;2023-04-03T06:45:06;4.15;;;2.28;;
4971;SDS011;2501;51.214;6.768;2023-04-03T06:47:36;6.20;;;2.30;;
4971;SDS011;2501;51.214;6.768;2023-04-03T06:50:05;4.47;;;2.70;;
4971;SDS011;2501;51.214;6.768;2023-04-03T06:52:36;4.50;;;2.13;;
4971;SDS011;2501;51.214;6.768;2023-04-03T06:55:05;2.53;;;2.20;;
4971;SDS011;2501;51.214;6.768;2023-04-03T06:57:35;7.57;;;2.80;;
4971;SDS011;2501;51.214;6.768;2023-04-03T07:00:06;7.50;;;2.20;;
4971;SDS011;2501;51.214;6.768;2023-04-03T07:02:37;4.10;;;2.50;;
4971;SDS011;2501;51.214;6.768;2023-04-03T07:05:06;8.80;;;2.80;;
4971;SDS011;2501;51.214;6.768;2023-04-03T07:07:35;11.57;;;2.65;;
4971;SDS011;2501;51.214;6.768;2023-04-03T07:10:04;3.30;;;2.20;;
4971;SDS011;2501;51.214;6.768;2023-04-03T07:12:34;5.70;;;2.70;;
4971;SDS011;2501;51.214;6.768;2023-04-03T07:15:06;6.22;;;2.65;;
4971;SDS011;2501;51.214;6.768;2023-04-03T07:17:36;4.05;;;2.30;;
4971;SDS011;2501;51.214;6.768;2023-04-03T07:20:05;3.67;;;2.80;;
4971;SDS011;2501;51.214;6.768;2023-04-03T07:22:34;6.13;;;2.58;;
4971;SDS011;2501;51.214;6.768;2023-04-03T07:25:03;5.00;;;2.70;;
4971;SDS011;2501;51.214;6.768;2023-04-03T07:27:33;4.53;;;2.55;;
4971;SDS011;2501;51.214;6.768;2023-04-03T07:30:01;6.67;;;2.17;;
4971;SDS011;2501;51.214;6.768;2023-04-03T07:32:34;5.15;;;2.30;;
4971;SDS011;2501;51.214;6.768;2023-04-03T07:35:03;6.23;;;2.37;;
4971;SDS011;2501;51.214;6.768;2023-04-03T07:37:35;9.50;;;2.60;;
4971;SDS011;2501;51.214;6.768;2023-04-03T07:40:04;8.48;;;3.15;;
4971;SDS011;2501;51.214;6.768;2023-04-03T07:42:34;4.97;;;2.10;;
4971;SDS011;2501;51.214;6.768;2023-04-03T07:45:05;6.70;;;2.10;;
4971;SDS011;2501;51.214;6.768;2023-04-03T07:47:34;9.48;;;3.10;;
4971;SDS011;2501;51.214;6.768;2023-04-03T07:50:03;6.07;;;2.20;;
4971;SDS011;2501;51.214;6.768;2023-04-03T07:52:32;8.13;;;2.65;;
4971;SDS011;2501;51.214;6.768;2023-04-03T07:55:00;7.15;;;2.50;;
4971;SDS011;2501;51.214;6.768;2023-04-03T07:57:29;7.40;;;2.00;;
4971;SDS011;2501;51.214;6.768;2023-04-03T07:59:57;4.43;;;2.38;;
4971;SDS011;2501;51.214;6.768;2023-04-03T08:02:28;6.05;;;1.90;;
4971;SDS011;2501;51.214;6.768;2023-04-03T08:04:56;5.13;;;1.90;;
4971;SDS011;2501;51.214;6.768;2023-04-03T08:07:25;5.72;;;2.30;;
4971;SDS011;2501;51.214;6.768;2023-04-03T08:09:54;4.00;;;2.08;;
4971;SDS011;2501;51.214;6.768;2023-04-03T08:12:22;5.80;;;2.30;;
4971;SDS011;2501;51.214;6.768;2023-04-03T08:14:51;4.20;;;2.40;;
4971;SDS011;2501;51.214;6.768;2023-04-03T08:17:22;4.63;;;2.33;;
4971;SDS011;2501;51.214;6.768;2023-04-03T08:19:53;3.60;;;2.00;;
4971;SDS011;2501;51.214;6.768;2023-04-03T08:22:22;7.00;;;2.13;;
4971;SDS011;2501;51.214;6.768;2023-04-03T08:24:54;4.93;;;2.13;;
4971;SDS011;2501;51.214;6.768;2023-04-03T08:27:22;4.10;;;1.90;;
4971;SDS011;2501;51.214;6.768;2023-04-03T08:29:51;2.40;;;1.55;;
4971;SDS011;2501;51.214;6.768;2023-04-03T08:32:20;4.60;;;1.52;;
4971;SDS011;2501;51.214;6.768;2023-04-03T08:34:48;3.83;;;1.65;;
4971;SDS011;2501;51.214;6.768;2023-04-03T08:37:19;3.35;;;1.80;;
4971;SDS011;2501;51.214;6.768;2023-04-03T08:39:48;1.85;;;1.50;;
4971;SDS011;2501;51.214;6.768;2023-04-03T08:42:19;4.90;;;1.60;;
4971;SDS011;2501;51.214;6.768;2023-04-03T08:44:59;5.50;;;1.50;;
4971;SDS011;2501;51.214;6.768;2023-04-03T08:47:36;4.72;;;1.70;;
4971;SDS011;2501;51.214;6.768;2023-04-03T08:50:11;2.03;;;1.43;;
4971;SDS011;2501;51.214;6.768;2023-04-03T08:52:47;4.05;;;1.42;;
4971;SDS011;2501;51.214;6.768;2023-04-03T08:55:22;5.30;;;1.60;;
4971;SDS011;2501;51.214;6.768;2023-04-03T08:57:53;3.10;;;1.65;;
4971;SDS011;2501;51.214;6.768;2023-04-03T09:00:28;6.17;;;1.90;;
4971;SDS011;2501;51.214;6.768;2023-04-03T09:03:02;2.00;;;1.30;;
4971;SDS011;2501;51.214;6.768;2023-04-03T09:05:33;3.50;;;1.50;;
4971;SDS011;2501;51.214;6.768;2023-04-03T09:11:11;5.20;;;1.60;;
4971;SDS011;2501;51.214;6.768;2023-04-03T09:13:47;5.40;;;1.60;;
4971;SDS011;2501;51.214;6.768;2023-04-03T09:16:25;2.38;;;1.40;;
4971;SDS011;2501;51.214;6.768;2023-04-03T09:19:02;1.55;;;1.05;;
4971;SDS011;2501;51.214;6.768;2023-04-03T09:21:39;3.72;;;1.40;;
4971;SDS011;2501;51.214;6.768;2023-04-03T09:24:12;2.70;;;1.13;;
4971;SDS011;2501;51.214;6.768;2023-04-03T09:26:42;2.17;;;1.10;;
4971;SDS011;2501;51.214;6.768;2023-04-03T09:29:16;9.20;;;2.10;;
4971;SDS011;2501;51.214;6.768;2023-04-03T09:31:47;3.03;;;1.50;;
4971;SDS011;2501;51.214;6.768;2023-04-03T09:34:18;9.02;;;2.05;;
4971;SDS011;2501;51.214;6.768;2023-04-03T09:36:52;7.38;;;1.90;;
4971;SDS011;2501;51.214;6.768;2023-04-03T09:39:25;2.33;;;1.90;;
4971;SDS011;2501;51.214;6.768;2023-04-03T09:41:56;3.70;;;2.00;;
4971;SDS011;2501;51.214;6.768;2023-04-03T09:44:30;4.03;;;1.70;;
4971;SDS011;2501;51.214;6.768;2023-04-03T09:47:16;2.10;;;1.40;;
4971;SDS011;2501;51.214;6.768;2023-04-03T09:49:46;1.80;;;1.70;;
4971;SDS011;2501;51.214;6.768;2023-04-03T09:52:19;3.60;;;1.50;;
4971;SDS011;2501;51.214;6.768;2023-04-03T09:55:03;4.43;;;1.60;;
4971;SDS011;2501;51.214;6.768;2023-04-03T09:57:35;4.13;;;1.42;;
4971;SDS011;2501;51.214;6.768;2023-04-03T10:00:05;2.60;;;1.10;;
4971;SDS011;2501;51.214;6.768;2023-04-03T10:02:47;5.05;;;2.15;;
4971;SDS011;2501;51.214;6.768;2023-04-03T10:05:25;5.93;;;1.80;;
4971;SDS011;2501;51.214;6.768;2023-04-03T10:08:10;2.03;;;1.40;;
4971;SDS011;2501;51.214;6.768;2023-04-03T10:16:32;4.78;;;1.73;;
4971;SDS011;2501;51.214;6.768;2023-04-03T10:19:09;3.35;;;1.90;;
4971;SDS011;2501;51.214;6.768;2023-04-03T10:21:47;1.60;;;1.50;;
4971;SDS011;2501;51.214;6.768;2023-04-03T10:24:23;3.65;;;1.70;;
4971;SDS011;2501;51.214;6.768;2023-04-03T10:27:01;5.10;;;2.30;;
4971;SDS011;2501;51.214;6.768;2023-04-03T10:29:36;3.55;;;1.40;;
4971;SDS011;2501;51.214;6.768;2023-04-03T10:32:11;3.88;;;1.90;;
4971;SDS011;2501;51.214;6.768;2023-04-03T10:34:48;3.47;;;1.52;;
4971;SDS011;2501;51.214;6.768;2023-04-03T10:37:22;2.95;;;1.48;;
4971;SDS011;2501;51.214;6.768;2023-04-03T10:39:54;4.40;;;1.80;;
4971;SDS011;2501;51.214;6.768;2023-04-03T10:42:32;3.60;;;1.70;;
4971;SDS011;2501;51.214;6.768;2023-04-03T10:45:15;5.40;;;1.60;;
4971;SDS011;2501;51.214;6.768;2023-04-03T10:47:55;6.47;;;1.77;;
4971;SDS011;2501;51.214;6.768;2023-04-03T10:50:37;4.35;;;1.75;;
4971;SDS011;2501;51.214;6.768;2023-04-03T10:53:13;4.68;;;1.70;;
4971;SDS011;2501;51.214;6.768;2023-04-03T10:55:55;2.55;;;1.70;;
4971;SDS011;2501;51.214;6.768;2023-04-03T10:58:33;4.63;;;1.50;;
4971;SDS011;2501;51.214;6.768;2023-04-03T11:01:06;2.92;;;1.70;;
4971;SDS011;2501;51.214;6.768;2023-04-03T11:03:38;2.25;;;1.40;;
4971;SDS011;2501;51.214;6.768;2023-04-03T11:06:11;5.10;;;1.77;;
4971;SDS011;2501;51.214;6.768;2023-04-03T11:08:42;2.53;;;1.40;;
4971;SDS011;2501;51.214;6.768;2023-04-03T11:11:14;5.30;;;1.47;;
4971;SDS011;2501;51.214;6.768;2023-04-03T11:13:49;3.90;;;1.58;;
4971;SDS011;2501;51.214;6.768;2023-04-03T11:16:23;2.92;;;1.60;;
4971;SDS011;2501;51.214;6.768;2023-04-03T11:18:54;4.78;;;1.48;;
4971;SDS011;2501;51.214;6.768;2023-04-03T11:21:28;11.25;;;1.80;;
4971;SDS011;2501;51.214;6.768;2023-04-03T11:24:01;2.80;;;1.20;;
4971;SDS011;2501;51.214;6.768;2023-04-03T11:26:36;4.88;;;1.42;;
4971;SDS011;2501;51.214;6.768;2023-04-03T11:29:11;3.10;;;1.20;;
4971;SDS011;2501;51.214;6.768;2023-04-03T11:31:52;4.03;;;1.08;;
4971;SDS011;2501;51.214;6.768;2023-04-03T11:34:36;2.20;;;1.20;;
4971;SDS011;2501;51.214;6.768;2023-04-03T11:37:12;1.50;;;1.20;;
4971;SDS011;2501;51.214;6.768;2023-04-03T11:39:47;1.30;;;1.10;;
4971;SDS011;2501;51.214;6.768;2023-04-03T11:42:25;2.10;;;1.20;;
4971;SDS011;2501;51.214;6.768;2023-04-03T11:45:22;2.40;;;1.10;;
4971;SDS011;2501;51.214;6.768;2023-04-03T11:48:04;2.85;;;1.02;;
4971;SDS011;2501;51.214;6.768;2023-04-03T11:50:41;1.73;;;0.90;;
4971;SDS011;2501;51.214;6.768;2023-04-03T11:53:30;2.95;;;1.30;;
4971;SDS011;2501;51.214;6.768;2023-04-03T11:56:27;1.70;;;1.10;;
4971;SDS011;2501;51.214;6.768;2023-04-03T12:01:53;1.90;;;1.10;;
4971;SDS011;2501;51.214;6.768;2023-04-03T12:04:23;2.65;;;1.17;;
4971;SDS011;2501;51.214;6.768;2023-04-03T12:12:57;1.50;;;1.00;;
4971;SDS011;2501;51.214;6.768;2023-04-03T12:24:27;2.72;;;1.20;;
4971;SDS011;2501;51.214;6.768;2023-04-03T12:29:59;2.72;;;1.10;;
4971;SDS011;2501;51.214;6.768;2023-04-03T12:32:35;9.63;;;1.30;;
4971;SDS011;2501;51.214;6.768;2023-04-03T12:35:21;6.53;;;1.77;;
4971;SDS011;2501;51.214;6.768;2023-04-03T12:38:01;3.95;;;1.10;;
4971;SDS011;2501;51.214;6.768;2023-04-03T12:40:57;4.70;;;1.20;;
4971;SDS011;2501;51.214;6.768;2023-04-03T12:43:38;1.65;;;1.30;;
4971;SDS011;2501;51.214;6.768;2023-04-03T12:46:17;3.90;;;1.10;;
4971;SDS011;2501;51.214;6.768;2023-04-03T12:48:49;3.75;;;1.70;;
4971;SDS011;2501;51.214;6.768;2023-04-03T12:51:26;3.67;;;1.40;;
4971;SDS011;2501;51.214;6.768;2023-04-03T12:54:02;1.40;;;1.00;;
4971;SDS011;2501;51.214;6.768;2023-04-03T12:56:40;1.02;;;0.90;;
4971;SDS011;2501;51.214;6.768;2023-04-03T12:59:13;1.50;;;1.20;;
4971;SDS011;2501;51.214;6.768;2023-04-03T13:01:43;2.80;;;1.30;;
4971;SDS011;2501;51.214;6.768;2023-04-03T13:04:12;1.73;;;1.50;;
4971;SDS011;2501;51.214;6.768;2023-04-03T13:06:43;1.90;;;1.40;;
4971;SDS011;2501;51.214;6.768;2023-04-03T13:09:18;2.30;;;1.20;;
4971;SDS011;2501;51.214;6.768;2023-04-03T13:11:51;4.00;;;1.58;;
4971;SDS011;2501;51.214;6.768;2023-04-03T13:14:28;2.40;;;1.50;;
4971;SDS011;2501;51.214;6.768;2023-04-03T13:16:58;3.67;;;1.20;;
4971;SDS011;2501;51.214;6.768;2023-04-03T13:19:30;1.40;;;1.15;;
4971;SDS011;2501;51.214;6.768;2023-04-03T13:22:02;3.03;;;1.50;;
4971;SDS011;2501;51.214;6.768;2023-04-03T13:24:34;3.72;;;1.30;;
4971;SDS011;2501;51.214;6.768;2023-04-03T13:27:05;5.80;;;1.20;;
4971;SDS011;2501;51.214;6.768;2023-04-03T13:29:35;2.25;;;1.10;;
4971;SDS011;2501;51.214;6.768;2023-04-03T13:32:05;3.27;;;1.30;;
4971;SDS011;2501;51.214;6.768;2023-04-03T13:34:36;4.25;;;1.50;;
4971;SDS011;2501;51.214;6.768;2023-04-03T13:37:11;2.58;;;1.42;;
4971;SDS011;2501;51.214;6.768;2023-04-03T13:39:56;6.63;;;1.77;;
4971;SDS011;2501;51.214;6.768;2023-04-03T13:42:27;4.03;;;1.98;;
4971;SDS011;2501;51.214;6.768;2023-04-03T13:45:16;3.55;;;1.63;;
4971;SDS011;2501;51.214;6.768;2023-04-03T13:47:49;4.97;;;1.57;;
4971;SDS011;2501;51.214;6.768;2023-04-03T13:50:20;4.00;;;1.30;;
4971;SDS011;2501;51.214;6.768;2023-04-03T13:52:54;2.13;;;1.58;;
4971;SDS011;2501;51.214;6.768;2023-04-03T13:55:30;2.60;;;1.50;;
4971;SDS011;2501;51.214;6.768;2023-04-03T13:58:01;4.50;;;1.80;;
4971;SDS011;2501;51.214;6.768;2023-04-03T14:00:33;3.97;;;1.50;;
4971;SDS011;2501;51.214;6.768;2023-04-03T14:03:12;5.45;;;1.88;;
4971;SDS011;2501;51.214;6.768;2023-04-03T14:05:41;4.28;;;1.50;;
4971;SDS011;2501;51.214;6.768;2023-04-03T14:08:13;4.38;;;1.52;;
4971;SDS011;2501;51.214;6.768;2023-04-03T14:10:42;3.92;;;1.58;;
4971;SDS011;2501;51.214;6.768;2023-04-03T14:13:12;4.03;;;1.30;;
4971;SDS011;2501;51.214;6.768;2023-04-03T14:15:43;6.70;;;1.50;;
4971;SDS011;2501;51.214;6.768;2023-04-03T14:18:14;2.83;;;1.77;;
4971;SDS011;2501;51.214;6.768;2023-04-03T14:20:44;1.30;;;1.20;;
4971;SDS011;2501;51.214;6.768;2023-04-03T14:23:15;2.63;;;1.38;;
4971;SDS011;2501;51.214;6.768;2023-04-03T14:25:43;1.70;;;1.60;;
4971;SDS011;2501;51.214;6.768;2023-04-03T14:28:15;2.97;;;1.35;;
4971;SDS011;2501;51.214;6.768;2023-04-03T14:30:46;3.10;;;1.50;;
4971;SDS011;2501;51.214;6.768;2023-04-03T14:33:16;4.70;;;1.70;;
4971;SDS011;2501;51.214;6.768;2023-04-03T14:35:47;4.40;;;1.70;;
4971;SDS011;2501;51.214;6.768;2023-04-03T14:38:26;2.50;;;1.40;;
4971;SDS011;2501;51.214;6.768;2023-04-03T14:40:56;3.83;;;1.38;;
4971;SDS011;2501;51.214;6.768;2023-04-03T14:43:26;4.47;;;1.50;;
4971;SDS011;2501;51.214;6.768;2023-04-03T14:45:54;3.15;;;1.50;;
4971;SDS011;2501;51.214;6.768;2023-04-03T14:48:24;2.30;;;1.63;;
4971;SDS011;2501;51.214;6.768;2023-04-03T14:50:56;1.60;;;1.50;;
4971;SDS011;2501;51.214;6.768;2023-04-03T14:53:27;2.17;;;1.30;;
4971;SDS011;2501;51.214;6.768;2023-04-03T14:55:57;2.40;;;1.30;;
4971;SDS011;2501;51.214;6.768;2023-04-03T14:58:26;5.18;;;1.92;;
4971;SDS011;2501;51.214;6.768;2023-04-03T15:00:57;1.63;;;1.20;;
4971;SDS011;2501;51.214;6.768;2023-04-03T15:03:25;3.45;;;1.35;;
4971;SDS011;2501;51.214;6.768;2023-04-03T15:05:54;2.33;;;1.33;;
4971;SDS011;2501;51.214;6.768;2023-04-03T15:08:23;4.90;;;1.50;;
4971;SDS011;2501;51.214;6.768;2023-04-03T15:10:57;7.93;;;2.50;;
4971;SDS011;2501;51.214;6.768;2023-04-03T15:13:26;3.65;;;1.15;;
4971;SDS011;2501;51.214;6.768;2023-04-03T15:15:55;2.20;;;1.30;;
4971;SDS011;2501;51.214;6.768;2023-04-03T15:18:24;1.90;;;1.40;;
4971;SDS011;2501;51.214;6.768;2023-04-03T15:20:54;4.10;;;1.48;;
4971;SDS011;2501;51.214;6.768;2023-04-03T15:23:22;2.60;;;1.20;;
4971;SDS011;2501;51.214;6.768;2023-04-03T15:25:55;3.92;;;1.38;;
4971;SDS011;2501;51.214;6.768;2023-04-03T15:28:26;3.42;;;1.25;;
4971;SDS011;2501;51.214;6.768;2023-04-03T15:30:56;2.10;;;1.40;;
4971;SDS011;2501;51.214;6.768;2023-04-03T15:33:25;2.95;;;1.42;;
4971;SDS011;2501;51.214;6.768;2023-04-03T15:35:54;3.30;;;1.60;;
4971;SDS011;2501;51.214;6.768;2023-04-03T15:38:23;3.90;;;1.50;;
4971;SDS011;2501;51.214;6.768;2023-04-03T15:40:51;3.05;;;1.40;;
4971;SDS011;2501;51.214;6.768;2023-04-03T15:43:23;5.18;;;1.35;;
4971;SDS011;2501;51.214;6.768;2023-04-03T15:45:52;4.07;;;1.90;;
4971;SDS011;2501;51.214;6.768;2023-04-03T15:48:25;1.92;;;1.10;;
4971;SDS011;2501;51.214;6.768;2023-04-03T15:50:55;3.20;;;1.50;;
4971;SDS011;2501;51.214;6.768;2023-04-03T15:53:24;2.08;;;1.50;;
4971;SDS011;2501;51.214;6.768;2023-04-03T15:55:53;3.93;;;1.50;;
4971;SDS011;2501;51.214;6.768;2023-04-03T15:58:24;3.60;;;1.50;;
4971;SDS011;2501;51.214;6.768;2023-04-03T16:00:52;2.23;;;1.30;;
4971;SDS011;2501;51.214;6.768;2023-04-03T16:03:21;2.72;;;1.27;;
4971;SDS011;2501;51.214;6.768;2023-04-03T16:05:50;4.55;;;1.50;;
4971;SDS011;2501;51.214;6.768;2023-04-03T16:08:18;4.50;;;1.65;;
4971;SDS011;2501;51.214;6.768;2023-04-03T16:10:47;2.60;;;1.40;;